Time;durP1;ratioP1;P1;durP2;ratioP2;P2;SDS_P1;SDS_P2;PMS_P1;PMS_P2;Temp;Humidity;BMP_temperature;BMP_pressure;BME280_temperature;BME280_humidity;BME280_pressure;Samples;Min_cycle;Max_cycle;Signal;HPM_P1;HPM_P2
2023/02/13 00:01:09;;;;;;;28.33;17.38;;;;;;;-1.98;70.21;96534.50;5124715;27;20043;-75
2023/02/13 00:03:34;;;;;;;32.83;19.20;;;;;;;-1.98;70.62;96533.66;5111790;28;20421;-75
2023/02/13 00:06:00;;;;;;;39.08;19.42;;;;;;;-2.01;70.28;96534.53;5094461;28;20035;-75
2023/02/13 00:08:25;;;;;;;34.55;18.92;;;;;;;-2.08;70.55;96543.09;5113178;27;20062;-75
2023/02/13 00:10:50;;;;;;;36.90;18.27;;;;;;;-2.06;70.50;96543.94;5112711;28;20030;-76
2023/02/13 00:13:16;;;;;;;36.92;20.23;;;;;;;-2.03;70.56;96539.66;5111440;28;20028;-75
2023/02/13 00:15:41;;;;;;;33.42;19.00;;;;;;;-2.02;70.26;96545.59;5112919;27;20023;-76
2023/02/13 00:18:07;;;;;;;29.48;18.40;;;;;;;-1.99;70.03;96526.91;5133201;27;20489;-76
2023/02/13 00:20:32;;;;;;;29.33;17.00;;;;;;;-1.88;69.76;96541.25;5112927;27;20039;-75
2023/02/13 00:22:58;;;;;;;32.15;17.35;;;;;;;-1.89;70.02;96544.66;5131834;27;20473;-76
2023/02/13 00:25:23;;;;;;;27.30;16.15;;;;;;;-1.93;70.06;96542.97;5103608;28;20410;-75
2023/02/13 00:27:52;;;;;;;27.60;16.23;;;;;;;-1.94;70.10;96551.47;5077257;28;20032;-75
2023/02/13 00:30:21;;;;;;;27.38;15.57;;;;;;;-1.90;70.26;96542.94;5111164;28;20032;-76
2023/02/13 00:32:47;;;;;;;28.73;16.65;;;;;;;-1.95;70.07;96547.25;5127506;27;20136;-76
2023/02/13 00:35:12;;;;;;;30.60;16.95;;;;;;;-1.95;69.81;96548.94;5129835;27;20039;-75
2023/02/13 00:37:38;;;;;;;32.63;17.88;;;;;;;-2.14;70.18;96532.94;5114339;27;20508;-75
2023/02/13 00:40:03;;;;;;;31.65;17.30;;;;;;;-2.16;69.92;96555.00;5129746;27;20042;-75
2023/02/13 00:42:29;;;;;;;30.60;16.70;;;;;;;-2.14;69.76;96554.16;5112871;27;20398;-76
2023/02/13 00:44:54;;;;;;;26.10;16.85;;;;;;;-2.30;69.94;96538.09;5110926;28;20390;-75
2023/02/13 00:47:20;;;;;;;27.33;16.25;;;;;;;-2.18;70.05;96546.53;5112889;27;20034;-76
2023/02/13 00:49:45;;;;;;;26.58;16.75;;;;;;;-2.25;70.80;96541.47;5110983;28;20469;-75
2023/02/13 00:52:11;;;;;;;28.25;16.92;;;;;;;-2.39;70.77;96542.41;5110705;28;20030;-76
2023/02/13 00:54:36;;;;;;;27.98;15.55;;;;;;;-2.20;70.87;96560.97;5110885;28;20519;-76
2023/02/13 00:57:02;;;;;;;24.67;15.70;;;;;;;-2.18;70.50;96555.00;5107194;28;20035;-76
2023/02/13 00:59:28;;;;;;;27.67;16.63;;;;;;;-2.26;70.17;96527.06;5084841;27;20095;-76
2023/02/13 01:01:53;;;;;;;28.17;16.70;;;;;;;-2.19;70.32;96549.94;5125292;27;20063;-76
2023/02/13 01:04:18;;;;;;;23.90;15.32;;;;;;;-2.25;69.91;96549.13;5110795;28;20035;-76
2023/02/13 01:06:44;;;;;;;27.67;15.95;;;;;;;-2.11;69.54;96566.88;5076646;28;20034;-76
2023/02/13 01:09:09;;;;;;;29.27;15.30;;;;;;;-2.24;69.33;96555.03;5126679;27;20039;-76
2023/02/13 01:11:35;;;;;;;29.67;16.27;;;;;;;-2.18;69.58;96551.63;5106390;28;20038;-75
2023/02/13 01:14:00;;;;;;;27.58;15.50;;;;;;;-2.26;69.69;96544.88;5119152;27;20438;-75
2023/02/13 01:16:26;;;;;;;25.45;14.63;;;;;;;-2.08;69.50;96559.19;5131058;27;20034;-76
2023/02/13 01:18:51;;;;;;;26.92;15.20;;;;;;;-1.98;68.97;96557.44;5112819;27;20023;-76
2023/02/13 01:21:19;;;;;;;27.67;16.05;;;;;;;-1.91;68.80;96555.72;5110295;28;20035;-76
2023/02/13 01:23:44;;;;;;;25.92;15.52;;;;;;;-2.06;69.14;96551.56;5102565;28;20085;-76
2023/02/13 01:26:13;;;;;;;23.83;14.32;;;;;;;-2.04;69.42;96560.88;5093454;28;20028;-76
2023/02/13 01:28:38;;;;;;;24.55;14.57;;;;;;;-1.99;69.00;96567.66;5106071;27;20118;-75
2023/02/13 01:31:04;;;;;;;22.42;13.95;;;;;;;-2.02;68.97;96558.31;5113598;28;20114;-76
2023/02/13 01:33:29;;;;;;;23.98;14.35;;;;;;;-1.99;69.13;96557.47;5116892;28;20047;-75
2023/02/13 01:35:55;;;;;;;26.52;14.80;;;;;;;-2.22;68.90;96538.06;5093314;28;20039;-76
2023/02/13 01:38:20;;;;;;;25.35;14.23;;;;;;;-2.11;69.13;96566.88;5110235;28;20035;-75
2023/02/13 01:40:47;;;;;;;23.38;14.68;;;;;;;-2.11;69.13;96571.13;5094092;28;20057;-76
2023/02/13 01:43:12;;;;;;;25.10;14.35;;;;;;;-2.13;69.32;96560.09;5113309;28;20030;-76
2023/02/13 01:45:38;;;;;;;22.67;13.48;;;;;;;-2.14;68.85;96543.13;5113673;28;20420;-75
2023/02/13 01:48:12;;;;;;;28.13;15.90;;;;;;;-2.04;69.65;96560.88;5118195;28;20167;-75
2023/02/13 01:50:53;;;;;;;27.67;15.45;;;;;;;-1.87;69.53;96568.41;5093849;28;20043;-76
2023/02/13 01:53:18;;;;;;;23.95;14.93;;;;;;;-1.89;69.88;96561.66;5111908;28;20087;-76
2023/02/13 01:55:52;;;;;;;27.20;14.57;;;;;;;-1.97;69.93;96566.78;5111203;28;20106;-76
2023/02/13 01:58:20;;;;;;;28.10;16.02;;;;;;;-1.94;69.52;96571.03;5110189;28;20042;-75
2023/02/13 02:00:48;;;;;;;28.45;15.95;;;;;;;-2.02;69.98;96543.03;5093004;28;20562;-76
2023/02/13 02:03:29;;;;;;;27.23;16.10;;;;;;;-1.89;70.08;96567.59;5124656;28;20023;-76
2023/02/13 02:05:54;;;;;;;27.58;14.98;;;;;;;-1.83;69.99;96572.63;5113634;28;20060;-76
2023/02/13 02:08:20;;;;;;;27.10;15.95;;;;;;;-1.97;70.51;96551.50;5133820;27;20116;-76
2023/02/13 02:10:45;;;;;;;28.70;15.95;;;;;;;-1.77;70.33;96558.16;5134561;27;20180;-75
2023/02/13 02:13:17;;;;;;;26.83;15.45;;;;;;;-1.69;70.21;96567.44;5100249;27;20031;-76
2023/02/13 02:15:43;;;;;;;32.28;17.42;;;;;;;-1.61;70.54;96569.94;5113309;27;20031;-75
2023/02/13 02:18:18;;;;;;;28.35;16.77;;;;;;;-1.66;70.64;96557.22;5116019;27;20019;-76
2023/02/13 02:21:02;;;;;;;30.40;17.00;;;;;;;-1.59;70.47;96578.41;5117726;27;20038;-76
2023/02/13 02:23:48;;;;;;;27.42;15.40;;;;;;;-1.52;69.62;96574.13;5134231;27;20386;-76
2023/02/13 02:26:32;;;;;;;28.08;15.93;;;;;;;-1.57;69.06;96572.44;5115883;27;20043;-76
2023/02/13 02:29:03;;;;;;;26.88;15.00;;;;;;;-1.50;69.49;96578.38;5114781;28;20119;-76
2023/02/13 02:31:49;;;;;;;28.48;14.98;;;;;;;-1.47;69.23;96574.94;5126588;27;20046;-75
2023/02/13 02:34:28;;;;;;;30.83;16.73;;;;;;;-1.30;69.62;96577.38;5135747;27;20034;-76
2023/02/13 02:37:22;;;;;;;29.60;16.20;;;;;;;-1.26;69.16;96584.13;5133967;27;20106;-75
2023/02/13 02:39:54;;;;;;;28.73;15.43;;;;;;;-1.33;69.06;96578.22;5131094;27;20034;-76
2023/02/13 02:42:34;;;;;;;;;;;;;;;-1.27;69.43;96582.44;5135626;27;20087;-76
2023/02/13 02:45:44;;;;;;;29.65;15.55;;;;;;;-1.21;69.81;96590.03;5135019;27;19930;-76
2023/02/13 02:51:11;;;;;;;33.30;17.02;;;;;;;-1.35;68.32;96580.78;5077623;28;20093;-75
2023/02/13 02:53:45;;;;;;;30.27;15.02;;;;;;;-1.20;68.04;96596.81;5122205;27;20091;-76
2023/02/13 02:56:23;;;;;;;31.85;16.92;;;;;;;-1.19;68.38;96601.91;5131214;27;20027;-75
2023/02/13 03:07:30;;;;;;;33.30;17.88;;;;;;;-1.09;68.60;96604.38;5099885;28;20044;-76
2023/02/13 03:24:32;;;;;;;34.80;18.65;;;;;;;-1.13;69.86;96608.66;5120523;27;20416;-76
2023/02/13 03:27:08;;;;;;;30.60;17.67;;;;;;;-1.33;69.79;96587.59;5132376;27;20039;-76
2023/02/13 03:30:05;;;;;;;33.25;17.73;;;;;;;-1.13;69.61;96599.28;5099417;27;20023;-76
2023/02/13 03:32:42;;;;;;;39.92;20.33;;;;;;;-1.37;69.70;96568.91;5114970;27;20048;-76
2023/02/13 03:38:26;;;;;;;32.40;16.92;;;;;;;-1.13;68.91;96606.13;5113908;28;20115;-76
2023/02/13 03:41:19;;;;;;;38.13;18.73;;;;;;;-1.03;68.26;96614.50;5112846;27;20035;-76
2023/02/13 03:44:12;;;;;;;32.55;16.95;;;;;;;-0.93;68.28;96616.97;5101630;27;20059;-76
2023/02/13 03:46:40;;;;;;;37.83;19.23;;;;;;;-1.10;69.40;96621.38;5124703;27;20031;-76
2023/02/13 03:51:54;;;;;;;32.85;18.63;;;;;;;-1.20;69.22;96597.69;5103474;27;20045;-75
2023/02/13 03:59:51;;;;;;;29.42;16.27;;;;;;;-1.23;66.88;96607.03;5102637;27;20045;-76
2023/02/13 04:02:19;;;;;;;34.03;18.10;;;;;;;-1.22;66.46;96601.09;5127333;27;20023;-76
2023/02/13 04:05:03;;;;;;;31.83;17.48;;;;;;;-1.24;66.66;96610.47;5109351;27;20035;-76
2023/02/13 04:07:29;;;;;;;28.30;15.65;;;;;;;-1.26;66.47;96601.97;5122549;27;20031;-76
2023/02/13 04:10:05;;;;;;;30.27;15.98;;;;;;;-1.38;66.33;96602.91;5087008;27;20034;-76
2023/02/13 04:12:34;;;;;;;30.75;16.63;;;;;;;-1.36;65.83;96606.31;5125895;27;20039;-76
2023/02/13 04:15:06;;;;;;;29.15;15.55;;;;;;;-1.41;65.48;96606.31;5126775;27;20019;-77
2023/02/13 04:17:40;;;;;;;32.00;16.10;;;;;;;-1.49;65.16;96609.78;5130013;27;20031;-76
2023/02/13 04:20:06;;;;;;;26.90;14.55;;;;;;;-1.62;65.06;96598.81;5123331;27;20059;-76
2023/02/13 04:22:31;;;;;;;28.05;15.75;;;;;;;-1.55;65.24;96615.78;5093214;27;20116;-76
2023/02/13 04:24:57;;;;;;;30.42;15.90;;;;;;;-1.45;65.38;96614.00;5127300;27;20038;-76
2023/02/13 04:27:23;;;;;;;27.50;14.63;;;;;;;-1.41;65.44;96611.44;5107379;27;20044;-76
2023/02/13 04:29:49;;;;;;;28.98;14.73;;;;;;;-1.57;66.58;96597.09;5103876;27;20045;-76
2023/02/13 04:32:16;;;;;;;30.60;17.10;;;;;;;-1.56;66.30;96593.72;5120097;27;20039;-77
2023/02/13 04:34:41;;;;;;;29.77;16.15;;;;;;;-1.41;66.29;96616.53;5105751;27;20561;-74
2023/02/13 04:37:07;;;;;;;32.17;16.50;;;;;;;-1.57;65.54;96592.00;5102644;28;20457;-74
2023/02/13 04:39:32;;;;;;;25.83;14.88;;;;;;;-1.48;65.85;96612.31;5122668;27;20117;-77
2023/02/13 04:41:58;;;;;;;28.90;16.10;;;;;;;-1.73;66.33;96570.03;5127582;27;20647;-77
2023/02/13 04:44:23;;;;;;;31.92;15.98;;;;;;;-1.48;66.06;96597.03;5109134;27;20057;-77
2023/02/13 04:46:49;;;;;;;32.92;16.25;;;;;;;-1.45;65.98;96607.22;5128816;27;20581;-77
2023/02/13 04:49:14;;;;;;;29.38;15.70;;;;;;;-1.43;64.94;96614.84;5129569;27;20498;-76
2023/02/13 04:51:40;;;;;;;28.70;15.95;;;;;;;-1.58;65.01;96603.91;5124924;27;20401;-76
2023/02/13 04:54:05;;;;;;;29.38;16.45;;;;;;;-1.58;64.55;96610.72;5129279;27;20355;-76
2023/02/13 04:56:31;;;;;;;28.83;15.65;;;;;;;-1.68;64.48;96596.31;5106796;28;20023;-76
2023/02/13 04:58:56;;;;;;;25.90;14.60;;;;;;;-1.59;64.07;96609.00;5127249;27;20031;-76
2023/02/13 05:01:22;;;;;;;32.10;15.35;;;;;;;-1.68;65.45;96614.16;5104903;28;20441;-76
2023/02/13 05:03:47;;;;;;;33.15;15.70;;;;;;;-1.84;65.67;96596.44;5107749;27;20142;-76
2023/02/13 05:06:13;;;;;;;27.38;14.45;;;;;;;-1.73;65.67;96615.88;5091613;28;20038;-76
2023/02/13 05:08:38;;;;;;;28.25;14.77;;;;;;;-1.68;65.27;96609.91;5127462;27;20471;-76
2023/02/13 05:11:04;;;;;;;32.47;16.23;;;;;;;-1.85;65.89;96619.38;5109262;27;20027;-76
2023/02/13 05:13:29;;;;;;;28.85;15.63;;;;;;;-2.22;67.44;96621.25;5110165;27;20035;-76
2023/02/13 05:15:55;;;;;;;30.98;16.27;;;;;;;-2.00;66.93;96630.50;5092457;27;20441;-76
2023/02/13 05:18:20;;;;;;;31.55;15.77;;;;;;;-1.89;67.00;96636.38;5110252;27;20043;-76
2023/02/13 05:23:21;;;;;;;30.90;16.08;;;;;;;-2.06;67.81;96623.72;5108161;27;20080;-76
2023/02/13 05:23:31;;;;;;;34.33;16.15;;;;;;;-2.14;67.84;96642.44;5112745;27;20557;-76
2023/02/13 05:25:56;;;;;;;29.90;15.57;;;;;;;-2.41;67.10;96602.66;5125320;27;20027;-76
2023/02/13 05:31:07;;;;;;;33.53;17.35;;;;;;;-2.18;69.64;96650.94;5088891;27;20178;-76
2023/02/13 05:33:33;;;;;;;33.20;16.02;;;;;;;-2.00;68.92;96642.38;5127081;27;20501;-77
2023/02/13 05:35:58;;;;;;;32.42;15.68;;;;;;;-1.99;68.55;96650.00;5128179;27;20446;-76
2023/02/13 05:38:24;;;;;;;34.13;16.50;;;;;;;-2.13;68.84;96626.28;5092070;28;20934;-76
2023/02/13 05:40:52;;;;;;;29.85;16.55;;;;;;;-2.13;68.61;96639.88;5124883;27;20451;-76
2023/02/13 05:43:18;;;;;;;29.70;15.88;;;;;;;-2.08;68.48;96634.78;5126723;27;20030;-76
2023/02/13 05:45:44;;;;;;;26.80;14.35;;;;;;;-2.15;67.15;96640.72;5126577;28;20031;-76
2023/02/13 05:48:09;;;;;;;28.50;15.20;;;;;;;-2.10;67.24;96646.66;5126834;28;20614;-76
2023/02/13 05:50:35;;;;;;;28.92;14.68;;;;;;;-1.91;67.33;96648.25;5124852;27;20096;-76
2023/02/13 05:53:00;;;;;;;31.38;16.25;;;;;;;-2.05;67.93;96652.59;5128868;27;20049;-76
2023/02/13 05:55:26;;;;;;;32.70;16.60;;;;;;;-1.98;67.57;96650.84;5094445;28;20024;-76
2023/02/13 05:57:55;;;;;;;31.02;16.65;;;;;;;-2.05;67.86;96657.69;5091625;28;20035;-76
2023/02/13 06:00:21;;;;;;;29.23;14.35;;;;;;;-2.07;67.53;96647.47;5127130;27;20031;-76
2023/02/13 06:02:46;;;;;;;34.28;16.55;;;;;;;-1.98;68.08;96666.97;5089665;28;20039;-76
2023/02/13 06:05:12;;;;;;;32.42;16.35;;;;;;;-1.91;67.88;96657.63;5126111;27;20027;-76
2023/02/13 06:07:37;;;;;;;31.70;16.33;;;;;;;-1.93;68.08;96654.22;5121592;28;20039;-76
2023/02/13 06:10:03;;;;;;;36.60;18.23;;;;;;;-1.89;68.55;96669.50;5092012;27;20478;-76
2023/02/13 06:12:28;;;;;;;32.50;16.65;;;;;;;-1.95;68.66;96648.28;5127064;28;20118;-76
2023/02/13 06:14:54;;;;;;;35.72;17.67;;;;;;;-1.75;68.51;96673.69;5119767;28;20043;-77
2023/02/13 06:17:19;;;;;;;36.65;17.33;;;;;;;-1.76;68.91;96666.88;5106459;28;20413;-76
2023/02/13 06:19:45;;;;;;;31.02;15.82;;;;;;;-1.79;68.39;96652.44;5122503;28;20035;-76
2023/02/13 06:22:10;;;;;;;33.25;16.67;;;;;;;-1.71;67.72;96663.44;5121988;27;20095;-76
2023/02/13 06:24:35;;;;;;;29.90;16.10;;;;;;;-1.80;67.77;96666.06;5126811;28;20030;-77
2023/02/13 06:27:01;;;;;;;34.28;16.80;;;;;;;-1.74;67.90;96672.81;5103723;28;20045;-76
2023/02/13 06:29:26;;;;;;;37.60;17.60;;;;;;;-1.74;68.22;96675.38;5118671;27;20020;-76
2023/02/13 06:31:52;;;;;;;35.78;17.58;;;;;;;-1.55;68.22;96687.16;5107501;28;20038;-77
2023/02/13 06:34:17;;;;;;;34.70;17.15;;;;;;;-1.69;68.23;96671.94;5116567;28;20057;-76
2023/02/13 06:36:42;;;;;;;36.05;18.13;;;;;;;-1.64;68.00;96651.53;5127481;28;20386;-76
2023/02/13 06:39:09;;;;;;;32.35;17.15;;;;;;;-1.54;68.33;96672.72;5117099;27;20280;-76
2023/02/13 06:41:35;;;;;;;32.80;17.60;;;;;;;-1.51;68.40;96647.19;5093042;28;20030;-76
2023/02/13 06:44:00;;;;;;;35.15;18.65;;;;;;;-1.41;68.08;96659.88;5099397;28;20046;-79
2023/02/13 06:46:26;;;;;;;39.88;18.63;;;;;;;-1.35;68.65;96670.03;5102355;28;20036;-77
2023/02/13 06:48:51;;;;;;;34.75;18.00;;;;;;;-1.16;68.46;96675.84;5102452;28;20035;-76
2023/02/13 06:51:16;;;;;;;34.30;17.70;;;;;;;-1.19;68.65;96670.78;5120218;27;20039;-75
2023/02/13 06:53:42;;;;;;;35.53;18.92;;;;;;;-1.07;68.57;96682.59;5111838;28;20577;-76
2023/02/13 06:56:10;;;;;;;39.92;19.25;;;;;;;-1.04;68.51;96685.09;5125241;27;20035;-76
2023/02/13 06:58:35;;;;;;;41.80;20.02;;;;;;;-1.01;67.96;96667.22;5078001;28;20072;-76
2023/02/13 07:01:01;;;;;;;33.58;17.10;;;;;;;-0.91;67.62;96679.06;5100953;27;20083;-76
2023/02/13 07:03:26;;;;;;;35.22;19.05;;;;;;;-0.83;67.93;96665.41;5097349;27;20039;-76
2023/02/13 07:05:51;;;;;;;39.08;20.35;;;;;;;-0.87;68.20;96677.31;5114370;27;20031;-76
2023/02/13 07:08:17;;;;;;;37.60;19.40;;;;;;;-0.68;67.90;96683.94;5097440;27;20023;-76
2023/02/13 07:10:42;;;;;;;40.90;21.10;;;;;;;-0.64;68.17;96673.72;5132573;27;20066;-76
2023/02/13 07:13:08;;;;;;;38.28;19.30;;;;;;;-0.66;68.07;96660.13;5110883;28;20390;-77
2023/02/13 07:15:34;;;;;;;42.00;20.38;;;;;;;-0.61;68.14;96678.78;5093914;28;20114;-76
2023/02/13 07:17:59;;;;;;;38.42;19.45;;;;;;;-0.46;67.68;96678.66;5112740;27;20061;-76
2023/02/13 07:20:25;;;;;;;43.00;20.83;;;;;;;-0.44;67.15;96671.00;5133320;27;20031;-76
2023/02/13 07:22:51;;;;;;;38.53;19.48;;;;;;;-0.60;67.05;96632.81;5112146;28;20060;-76
2023/02/13 07:25:16;;;;;;;39.38;19.48;;;;;;;-0.32;66.75;96666.59;5114547;27;20114;-76
2023/02/13 07:27:42;;;;;;;35.35;18.77;;;;;;;-0.12;66.32;96688.50;5095361;27;20130;-76
2023/02/13 07:30:08;;;;;;;38.97;20.17;;;;;;;-0.28;65.89;96663.16;5109090;27;20024;-76
2023/02/13 07:32:33;;;;;;;38.35;19.42;;;;;;;-0.34;66.38;96672.56;5117408;27;20051;-76
2023/02/13 07:34:59;;;;;;;43.35;20.48;;;;;;;-0.25;66.47;96687.81;5116876;27;20027;-76
2023/02/13 07:37:26;;;;;;;37.45;20.85;;;;;;;-0.30;66.63;96664.88;5126423;27;20043;-76
2023/02/13 07:39:52;;;;;;;43.45;21.50;;;;;;;-0.20;66.65;96675.81;5093840;27;20074;-77
2023/02/13 07:42:17;;;;;;;40.58;21.42;;;;;;;-0.25;66.82;96665.66;5098014;28;20080;-79
2023/02/13 07:44:43;;;;;;;39.45;20.60;;;;;;;0.09;66.54;96690.81;5129239;27;20035;-76
2023/02/13 07:47:09;;;;;;;45.30;22.70;;;;;;;0.15;66.26;96677.97;5130000;27;20087;-76
2023/02/13 07:49:35;;;;;;;45.50;23.33;;;;;;;0.28;66.49;96685.47;5117925;27;20427;-76
2023/02/13 07:52:01;;;;;;;45.80;23.00;;;;;;;0.13;66.35;96673.72;5124844;27;20086;-76
2023/02/13 07:54:27;;;;;;;45.15;22.52;;;;;;;0.19;66.06;96684.72;5110928;28;20386;-76
2023/02/13 07:56:52;;;;;;;47.92;23.98;;;;;;;0.25;66.63;96688.91;5120606;27;20410;-76
2023/02/13 07:59:18;;;;;;;55.60;26.33;;;;;;;0.19;66.43;96660.88;5133513;27;20072;-76
2023/02/13 08:01:43;;;;;;;46.35;25.10;;;;;;;0.43;65.57;96672.50;5123236;27;20030;-76
2023/02/13 08:04:09;;;;;;;48.33;24.20;;;;;;;0.54;65.71;96680.03;5094299;28;20085;-76
2023/02/13 08:06:34;;;;;;;49.50;24.80;;;;;;;0.64;65.44;96682.44;5119293;27;20026;-77
2023/02/13 08:11:53;;;;;;;47.63;24.35;;;;;;;0.64;65.92;96668.78;5116013;27;20623;-76
2023/02/13 08:14:20;;;;;;;53.30;26.02;;;;;;;0.67;65.40;96676.44;5099387;28;20035;-76
2023/02/13 08:16:45;;;;;;;53.17;25.55;;;;;;;0.58;65.23;96658.66;5113138;27;20027;-74
2023/02/13 08:19:11;;;;;;;50.90;24.88;;;;;;;0.80;65.24;96675.38;5129257;27;20050;-76
2023/02/13 08:21:37;;;;;;;48.22;24.90;;;;;;;0.75;65.02;96666.91;5105542;27;20452;-76
2023/02/13 08:24:03;;;;;;;52.72;27.02;;;;;;;0.88;64.50;96681.22;5092921;28;20046;-76
2023/02/13 08:26:30;;;;;;;58.58;29.40;;;;;;;0.93;64.78;96670.91;5099990;27;20106;-76
2023/02/13 08:28:56;;;;;;;69.00;31.33;;;;;;;1.02;63.86;96672.50;5097442;27;20031;-76
2023/02/13 08:31:21;;;;;;;58.00;28.42;;;;;;;1.15;63.18;96674.00;5127799;27;20118;-76
2023/02/13 08:33:46;;;;;;;53.88;26.45;;;;;;;1.18;62.92;96673.09;5122306;27;20051;-76
2023/02/13 08:36:12;;;;;;;55.20;25.90;;;;;;;1.04;63.21;96674.16;5122240;27;20031;-76
2023/02/13 08:38:37;;;;;;;59.83;28.88;;;;;;;0.78;64.28;96677.13;5096964;28;20024;-76
2023/02/13 08:41:03;;;;;;;62.78;30.95;;;;;;;0.88;64.43;96675.25;5093742;28;20027;-76
2023/02/13 08:43:28;;;;;;;62.00;29.08;;;;;;;0.99;64.47;96675.09;5112063;28;20151;-76
2023/02/13 08:45:57;;;;;;;65.20;31.05;;;;;;;0.90;64.58;96660.75;5093862;28;20030;-76
2023/02/13 08:48:23;;;;;;;53.75;27.52;;;;;;;1.14;63.08;96682.53;5109922;27;20043;-76
2023/02/13 08:50:48;;;;;;;71.43;31.33;;;;;;;1.06;63.89;96681.81;5104058;27;20031;-76
2023/02/13 08:53:14;;;;;;;65.53;31.98;;;;;;;1.13;63.75;96680.00;5109720;28;20082;-76
2023/02/13 08:55:39;;;;;;;68.13;31.55;;;;;;;1.12;64.44;96671.47;5111186;27;20072;-76
2023/02/13 08:58:05;;;;;;;64.57;31.00;;;;;;;0.72;64.17;96636.25;5111853;28;20024;-76
2023/02/13 09:00:30;;;;;;;63.80;30.88;;;;;;;1.15;64.08;96685.94;5110686;28;20048;-76
2023/02/13 09:03:00;;;;;;;58.70;29.67;;;;;;;1.06;63.86;96663.91;5077112;28;20481;-76
2023/02/13 09:05:26;;;;;;;65.72;31.20;;;;;;;1.28;63.52;96675.47;5110720;28;20489;-76
2023/02/13 09:07:51;;;;;;;65.90;31.48;;;;;;;1.37;63.75;96679.59;5111836;28;20085;-76
2023/02/13 09:10:17;;;;;;;65.30;31.10;;;;;;;1.46;62.94;96670.91;5110579;28;20481;-77
2023/02/13 09:12:42;;;;;;;73.95;33.80;;;;;;;1.50;63.31;96680.22;5094896;28;20437;-77
2023/02/13 09:15:08;;;;;;;93.50;41.35;;;;;;;1.61;63.29;96680.03;5100046;27;20038;-77
2023/02/13 09:17:34;;;;;;;74.85;31.83;;;;;;;1.49;63.02;96674.25;5113005;27;20031;-77
2023/02/13 09:19:59;;;;;;;70.78;32.13;;;;;;;1.56;63.28;96675.84;5130884;27;20038;-77
2023/02/13 09:22:25;;;;;;;60.20;28.55;;;;;;;1.53;62.57;96644.28;5100452;28;20040;-76
2023/02/13 09:24:50;;;;;;;64.88;29.67;;;;;;;1.63;62.35;96668.88;5093383;28;20036;-78
2023/02/13 09:27:16;;;;;;;64.28;29.98;;;;;;;1.60;62.23;96645.88;5111339;28;20031;-78
2023/02/13 09:29:41;;;;;;;63.20;29.30;;;;;;;1.63;62.64;96663.75;5108583;27;20027;-76
2023/02/13 09:32:07;;;;;;;64.82;30.15;;;;;;;1.54;62.38;96646.00;5113368;27;20401;-76
2023/02/13 09:34:32;;;;;;;75.90;33.50;;;;;;;1.82;62.18;96659.13;5129416;27;20019;-76
2023/02/13 09:36:57;;;;;;;64.95;30.48;;;;;;;1.82;61.35;96650.63;5111124;28;20031;-75
2023/02/13 09:39:23;;;;;;;64.18;29.73;;;;;;;1.78;62.15;96639.56;5093285;28;20028;-75
2023/02/13 09:41:49;;;;;;;59.33;29.08;;;;;;;1.51;61.60;96554.69;5093141;28;20032;-75
2023/02/13 09:44:34;;;;;;;72.20;33.00;;;;;;;2.12;62.26;96642.31;5093276;28;20115;-75
2023/02/13 09:47:08;;;;;;;65.65;30.67;;;;;;;2.11;61.03;96634.63;5094873;28;20039;-74
2023/02/13 09:49:35;;;;;;;74.32;35.33;;;;;;;2.03;61.58;96624.53;5111600;28;20055;-73
2023/02/13 09:52:01;;;;;;;72.63;32.50;;;;;;;2.02;61.42;96638.25;5092908;28;20179;-74
2023/02/13 09:54:27;;;;;;;67.75;31.20;;;;;;;1.74;61.88;96602.91;5110012;28;20514;-74
2023/02/13 09:57:09;;;;;;;67.40;31.55;;;;;;;1.94;62.05;96625.56;5092980;28;20088;-73
2023/02/13 09:59:50;;;;;;;68.55;31.65;;;;;;;2.06;62.22;96634.72;5109672;28;20110;-75
2023/02/13 10:02:22;;;;;;;68.07;33.23;;;;;;;1.98;61.80;96629.78;5109727;28;20045;-73
2023/02/13 10:05:16;;;;;;;64.53;30.70;;;;;;;2.09;61.97;96624.44;5109818;28;20285;-74
2023/02/13 10:07:52;;;;;;;70.55;31.10;;;;;;;2.21;61.40;96628.44;5105846;28;20039;-73
2023/02/13 10:10:27;;;;;;;75.40;31.52;;;;;;;2.44;60.81;96617.69;5110018;28;20039;-73
2023/02/13 10:12:55;;;;;;;67.15;30.95;;;;;;;2.38;60.63;96620.38;5111342;28;20110;-73
2023/02/13 10:15:47;;;;;;;74.35;34.20;;;;;;;2.51;60.53;96615.81;5092425;28;20254;-73
2023/02/13 10:18:20;;;;;;;65.78;30.63;;;;;;;2.59;60.01;96612.22;5109666;28;20444;-73
2023/02/13 10:20:49;;;;;;;71.95;32.92;;;;;;;2.76;59.40;96606.69;5093393;28;20507;-73
2023/02/13 10:23:20;;;;;;;68.95;31.35;;;;;;;2.76;59.27;96601.56;5092804;28;20470;-73
2023/02/13 10:25:52;;;;;;;67.40;31.85;;;;;;;2.95;58.57;96591.66;5111307;28;20562;-73
2023/02/13 10:28:27;;;;;;;64.20;30.88;;;;;;;2.93;58.28;96577.22;5100536;28;20035;-74
2023/02/13 10:30:55;;;;;;;59.40;29.92;;;;;;;2.99;58.76;96595.88;5092443;28;20038;-75
2023/02/13 10:33:51;;;;;;;62.72;30.70;;;;;;;3.09;58.50;96584.50;5114779;27;20051;-75
2023/02/13 10:36:35;;;;;;;63.65;31.73;;;;;;;3.02;58.63;96577.81;5123705;27;20055;-76
2023/02/13 10:39:01;;;;;;;65.15;30.63;;;;;;;3.03;58.48;96547.84;5105606;28;20230;-76
2023/02/13 10:41:39;;;;;;;74.15;32.80;;;;;;;3.21;58.18;96570.50;5097001;27;20467;-74
2023/02/13 10:44:11;;;;;;;66.18;32.83;;;;;;;3.20;57.83;96570.50;5108856;27;20024;-75
2023/02/13 10:46:50;;;;;;;66.60;32.22;;;;;;;3.09;57.82;96551.13;5134945;27;20038;-75
2023/02/13 10:49:44;;;;;;;72.93;32.72;;;;;;;3.16;58.10;96563.78;5121547;27;20088;-74
2023/02/13 10:52:28;;;;;;;73.30;31.90;;;;;;;3.19;58.02;96553.44;5114259;28;20027;-74
2023/02/13 10:55:01;;;;;;;77.65;33.63;;;;;;;3.27;58.21;96551.50;5114606;28;20549;-74
2023/02/13 10:57:33;;;;;;;75.93;34.88;;;;;;;3.15;58.62;96544.97;5112586;28;20097;-74
2023/02/13 11:00:05;;;;;;;76.05;34.17;;;;;;;3.01;58.35;96550.47;5119313;27;20413;-75
2023/02/13 11:02:35;;;;;;;74.78;34.40;;;;;;;3.12;58.90;96543.31;5114395;28;20591;-75
2023/02/13 11:05:10;;;;;;;72.70;32.63;;;;;;;3.24;57.83;96543.88;5127699;27;20027;-72
2023/02/13 11:07:36;;;;;;;73.07;31.95;;;;;;;3.26;58.08;96531.81;5108539;27;20398;-74
2023/02/13 11:10:06;;;;;;;72.80;31.85;;;;;;;3.45;57.46;96534.75;5102920;28;20035;-73
2023/02/13 11:12:32;;;;;;;63.60;30.77;;;;;;;3.32;57.31;96511.13;5102232;27;20052;-75
2023/02/13 11:15:03;;;;;;;69.53;31.25;;;;;;;3.48;56.90;96514.97;5087468;27;20545;-75
2023/02/13 11:17:36;;;;;;;68.63;31.90;;;;;;;3.61;57.49;96524.88;5104137;27;20035;-75
2023/02/13 11:20:26;;;;;;;66.45;29.80;;;;;;;3.75;56.70;96515.88;5105986;27;20118;-75
2023/02/13 11:22:51;;;;;;;72.88;31.15;;;;;;;3.80;56.84;96515.75;5120467;27;20039;-75
2023/02/13 11:25:20;;;;;;;67.30;31.25;;;;;;;4.06;55.67;96491.84;5115946;27;20522;-76
2023/02/13 11:27:46;;;;;;;58.88;27.48;;;;;;;4.26;54.97;96498.94;5115986;27;20034;-76
2023/02/13 11:30:32;;;;;;;72.65;32.35;;;;;;;4.32;54.85;96480.75;5112931;27;20084;-76
2023/02/13 11:32:59;;;;;;;107.30;41.47;;;;;;;4.37;54.78;96462.56;5129118;27;20058;-76
2023/02/13 11:35:29;;;;;;;85.45;34.78;;;;;;;4.72;54.07;96487.16;5131020;27;20038;-76
2023/02/13 11:38:19;;;;;;;140.60;51.03;;;;;;;4.79;54.40;96480.94;5130966;27;20527;-76
2023/02/13 11:41:06;;;;;;;65.88;30.75;;;;;;;4.91;53.68;96477.94;5121254;27;20036;-76
2023/02/13 11:43:36;;;;;;;72.70;33.88;;;;;;;4.92;53.71;96469.31;5093294;28;20039;-76
2023/02/13 11:46:06;;;;;;;72.25;32.15;;;;;;;5.01;53.79;96468.13;5112105;28;20032;-76
2023/02/13 11:48:32;;;;;;;64.70;29.83;;;;;;;4.93;52.32;96452.97;5095557;27;20027;-76
2023/02/13 11:50:58;;;;;;;65.28;29.38;;;;;;;5.03;53.10;96447.50;5103821;27;20046;-76
2023/02/13 11:53:29;;;;;;;67.20;31.77;;;;;;;5.09;53.14;96429.25;5115949;27;20029;-76
2023/02/13 11:56:12;;;;;;;66.55;31.67;;;;;;;4.73;52.71;96369.56;5115807;27;20165;-76
2023/02/13 11:58:37;;;;;;;71.50;32.97;;;;;;;5.09;52.59;96424.09;5093470;28;20042;-76
2023/02/13 12:01:21;;;;;;;64.25;31.70;;;;;;;5.17;52.54;96437.53;5107327;27;20035;-76
2023/02/13 12:04:06;;;;;;;58.28;29.10;;;;;;;5.21;52.59;96428.81;5132733;27;20084;-76
2023/02/13 12:06:38;;;;;;;66.70;32.47;;;;;;;5.31;51.83;96434.47;5133848;27;20114;-76
2023/02/13 12:09:04;;;;;;;69.78;31.45;;;;;;;5.10;52.47;96408.59;5117608;27;20156;-76
2023/02/13 12:11:45;;;;;;;64.35;29.90;;;;;;;5.28;51.67;96421.69;5095039;28;20055;-76